Time;durP1;ratioP1;P1;durP2;ratioP2;P2;SDS_P1;SDS_P2;PMS_P1;PMS_P2;Temp;Humidity;BMP_temperature;BMP_pressure;BME280_temperature;BME280_humidity;BME280_pressure;Samples;Min_cycle;Max_cycle;Signal;HPM_P1;HPM_P2
2023/06/20 00:01:10;;;;;;;1999.90;999.90;;;;;;;31.59;31.91;101293.06;5092533;28;20031;-76
2023/06/20 00:03:35;;;;;;;1999.90;999.90;;;;;;;31.85;31.74;101289.78;5062227;28;20062;-75
2023/06/20 00:06:00;;;;;;;1999.90;999.90;;;;;;;31.19;32.61;101295.81;5061221;28;20028;-75
2023/06/20 00:08:26;;;;;;;1999.90;999.90;;;;;;;31.54;32.42;101292.59;5074729;28;20455;-75
2023/06/20 00:10:51;;;;;;;1999.90;999.90;;;;;;;32.55;31.33;101288.63;5073296;28;20028;-75
2023/06/20 00:13:19;;;;;;;1999.90;999.90;;;;;;;32.17;31.47;101288.63;5072992;28;20084;-76
2023/06/20 00:15:45;;;;;;;1999.90;999.90;;;;;;;32.24;31.01;101287.03;5092065;28;20032;-76
2023/06/20 00:18:10;;;;;;;1999.90;999.90;;;;;;;31.99;31.62;101291.19;5063929;28;20059;-75
2023/06/20 00:20:35;;;;;;;1999.90;999.90;;;;;;;31.87;31.65;101287.78;5055754;28;20028;-75
2023/06/20 00:23:02;;;;;;;1999.90;999.90;;;;;;;32.01;31.75;101282.94;5057778;28;20032;-75
2023/06/20 00:25:28;;;;;;;1999.90;999.90;;;;;;;31.71;32.13;101282.97;5091469;28;20024;-75
2023/06/20 00:27:53;;;;;;;1999.90;999.90;;;;;;;30.90;33.59;101283.94;5074070;28;20024;-76
2023/06/20 00:30:19;;;;;;;1999.90;999.90;;;;;;;31.24;33.01;101291.75;5074543;28;20377;-75
2023/06/20 00:32:44;;;;;;;1999.90;999.90;;;;;;;31.96;31.87;101286.91;5053027;28;20158;-76
2023/06/20 00:35:10;;;;;;;1999.90;999.90;;;;;;;31.77;32.09;101287.78;5071575;28;20032;-75
2023/06/20 00:37:38;;;;;;;1999.90;999.90;;;;;;;32.00;32.03;101289.31;5053801;28;20400;-75
2023/06/20 00:40:06;;;;;;;1999.90;999.90;;;;;;;32.40;31.25;101282.88;5052529;28;20056;-75
2023/06/20 00:42:31;;;;;;;1999.90;999.90;;;;;;;32.59;30.84;101281.91;5053904;28;20039;-76
2023/06/20 00:44:57;;;;;;;1999.90;999.90;;;;;;;31.80;32.14;101283.94;5054836;28;20060;-76
2023/06/20 00:47:23;;;;;;;1999.90;999.90;;;;;;;31.57;32.25;101276.13;5073476;28;20027;-75
2023/06/20 00:49:50;;;;;;;1999.90;999.90;;;;;;;31.34;32.86;101274.66;5068506;28;20059;-76
2023/06/20 00:52:25;;;;;;;1999.90;999.90;;;;;;;30.89;32.88;101279.53;5053213;28;20058;-75
2023/06/20 00:54:50;;;;;;;1999.90;999.90;;;;;;;31.34;32.59;101263.88;5070043;28;20038;-74
2023/06/20 00:57:18;;;;;;;1999.90;999.90;;;;;;;30.83;33.10;101272.00;5073846;28;20024;-76
2023/06/20 00:59:48;;;;;;;1999.90;999.90;;;;;;;31.12;32.57;101261.31;5062490;28;20059;-75
2023/06/20 01:02:14;;;;;;;1999.90;999.90;;;;;;;31.19;32.47;101267.00;5053343;28;20484;-76
2023/06/20 01:04:45;;;;;;;1999.90;999.90;;;;;;;31.00;33.13;101261.53;5070035;28;20362;-76
2023/06/20 01:07:33;;;;;;;1999.90;999.90;;;;;;;30.38;33.25;101262.44;5072654;28;20053;-76
2023/06/20 01:10:24;;;;;;;1999.90;999.90;;;;;;;31.09;32.39;101260.72;5065563;28;20038;-75
2023/06/20 01:12:53;;;;;;;1999.90;999.90;;;;;;;31.42;31.90;101267.59;5070714;28;20031;-75
2023/06/20 01:15:27;;;;;;;1999.90;999.90;;;;;;;31.45;31.60;101255.66;5052885;28;20042;-75
2023/06/20 01:18:06;;;;;;;1999.90;999.90;;;;;;;31.56;31.66;101258.22;5059176;28;20051;-75
2023/06/20 01:20:36;;;;;;;1999.90;999.90;;;;;;;31.54;31.49;101262.88;5091656;28;20503;-75
2023/06/20 01:23:23;;;;;;;1999.90;999.90;;;;;;;32.42;30.07;101253.81;5077431;28;20153;-75
2023/06/20 01:26:03;;;;;;;1999.90;999.90;;;;;;;32.50;30.05;101256.63;5072881;28;20027;-75
2023/06/20 01:28:39;;;;;;;1999.90;999.90;;;;;;;32.55;30.07;101254.31;5072795;28;20057;-75
2023/06/20 01:31:13;;;;;;;1999.90;999.90;;;;;;;32.37;30.24;101256.97;5061194;28;20119;-75
2023/06/20 01:34:28;;;;;;;1999.90;999.90;;;;;;;32.54;30.33;101252.63;5059452;28;20050;-75
2023/06/20 01:36:57;;;;;;;1999.90;999.90;;;;;;;32.24;30.36;101245.63;4972332;28;20030;-75
2023/06/20 01:39:33;;;;;;;1999.90;999.90;;;;;;;31.52;31.38;101245.97;5037643;28;20036;-75
2023/06/20 01:42:02;;;;;;;1999.90;999.90;;;;;;;31.62;31.64;101251.41;5074239;28;20032;-74
2023/06/20 01:44:30;;;;;;;1999.90;999.90;;;;;;;32.21;30.83;101241.34;5087434;28;20032;-74
2023/06/20 01:46:58;;;;;;;1999.90;999.90;;;;;;;32.37;30.79;101242.56;5052192;28;20056;-75
2023/06/20 01:49:26;;;;;;;1999.90;999.90;;;;;;;31.57;32.16;101237.44;5052394;28;20040;-75
2023/06/20 01:51:55;;;;;;;1999.90;999.90;;;;;;;32.36;30.60;101227.38;5051666;28;20024;-75
2023/06/20 01:54:24;;;;;;;1999.90;999.90;;;;;;;31.88;31.50;101224.63;5055225;28;20537;-75
2023/06/20 01:56:51;;;;;;;1999.90;999.90;;;;;;;31.63;31.64;101235.06;5070172;28;20044;-74
2023/06/20 01:59:18;;;;;;;1999.90;999.90;;;;;;;31.89;31.45;101231.75;5056700;28;20024;-75
2023/06/20 02:01:46;;;;;;;1999.90;999.90;;;;;;;31.55;31.93;101234.03;5055876;28;20024;-74
2023/06/20 02:04:14;;;;;;;1999.90;999.90;;;;;;;31.76;31.57;101236.59;5066045;28;20032;-74
2023/06/20 02:06:39;;;;;;;1999.90;999.90;;;;;;;31.77;31.64;101232.91;5074135;28;20039;-75
2023/06/20 02:09:05;;;;;;;1999.90;999.90;;;;;;;32.01;31.46;101227.00;5056445;28;20028;-75
2023/06/20 02:11:33;;;;;;;1999.90;999.90;;;;;;;31.76;31.87;101215.00;5055668;28;20029;-75
2023/06/20 02:13:59;;;;;;;1999.90;999.90;;;;;;;31.88;31.29;101218.38;5083959;28;20036;-75
2023/06/20 02:16:26;;;;;;;1999.90;999.90;;;;;;;32.06;31.24;101215.78;5064170;28;20132;-75
2023/06/20 02:18:51;;;;;;;1999.90;999.90;;;;;;;31.33;31.96;101216.28;5073654;28;20039;-77
2023/06/20 02:21:20;;;;;;;1999.90;999.90;;;;;;;31.44;31.60;101221.53;5056324;28;20024;-75
2023/06/20 02:23:49;;;;;;;1999.90;999.90;;;;;;;31.85;31.45;101213.25;5077465;28;20120;-75
2023/06/20 02:26:17;;;;;;;1999.90;999.90;;;;;;;32.00;31.71;101211.81;5064034;28;20572;-75
2023/06/20 02:28:47;;;;;;;1999.90;999.90;;;;;;;31.80;31.42;101217.25;5078562;28;20111;-75
2023/06/20 02:31:16;;;;;;;1999.90;999.90;;;;;;;31.57;31.38;101222.09;5055861;28;20024;-75
2023/06/20 02:33:43;;;;;;;1999.90;999.90;;;;;;;31.10;32.28;101213.84;5055327;28;20028;-75
2023/06/20 02:36:09;;;;;;;1999.90;999.90;;;;;;;31.37;31.99;101215.84;5064448;28;20039;-75
2023/06/20 02:38:35;;;;;;;1999.90;999.90;;;;;;;31.30;31.69;101209.31;5075144;28;20032;-75
2023/06/20 02:41:01;;;;;;;1999.90;999.90;;;;;;;31.70;31.25;101216.41;5093876;28;20024;-75
2023/06/20 02:43:27;;;;;;;1999.90;999.90;;;;;;;31.96;31.16;101210.41;5085771;28;20468;-75
2023/06/20 02:46:04;;;;;;;1999.90;999.90;;;;;;;32.19;30.51;101207.34;5054944;28;20495;-75
2023/06/20 02:48:42;;;;;;;1999.90;999.90;;;;;;;32.13;30.75;101211.47;5055859;28;20051;-75
2023/06/20 02:51:15;;;;;;;1999.90;999.90;;;;;;;31.71;31.53;101195.66;5055522;28;20020;-75
2023/06/20 02:53:59;;;;;;;1999.90;999.90;;;;;;;31.20;31.83;101203.06;5064150;28;20032;-75
2023/06/20 02:56:29;;;;;;;1999.90;999.90;;;;;;;31.16;31.87;101197.09;5064644;28;20056;-75
2023/06/20 02:58:56;;;;;;;1999.90;999.90;;;;;;;31.13;32.07;101191.97;5054995;28;20301;-75
2023/06/20 03:01:27;;;;;;;1999.90;999.90;;;;;;;31.12;32.47;101195.69;5055001;28;20028;-75
2023/06/20 03:03:55;;;;;;;1999.90;999.90;;;;;;;30.99;32.45;101189.66;5063050;28;20097;-75
2023/06/20 03:06:26;;;;;;;1999.90;999.90;;;;;;;31.21;32.33;101184.00;5085475;28;20035;-75
2023/06/20 03:08:54;;;;;;;1999.90;999.90;;;;;;;31.76;31.51;101177.16;5093345;28;20030;-75
2023/06/20 03:11:19;;;;;;;1999.90;999.90;;;;;;;31.58;31.84;101185.97;5093651;28;20035;-75
2023/06/20 03:13:45;;;;;;;1999.90;999.90;;;;;;;32.16;30.88;101186.88;5090255;28;20040;-75
2023/06/20 03:16:10;;;;;;;1999.90;999.90;;;;;;;32.28;30.74;101182.97;5065170;28;20435;-75
2023/06/20 03:18:36;;;;;;;1999.90;999.90;;;;;;;32.35;30.94;101182.41;5071106;28;20047;-74
2023/06/20 03:21:02;;;;;;;1999.90;999.90;;;;;;;32.21;30.76;101190.00;5066645;28;20116;-74
2023/06/20 03:23:27;;;;;;;1999.90;999.90;;;;;;;32.21;30.87;101187.28;5055007;28;20119;-74
2023/06/20 03:25:53;;;;;;;1999.90;999.90;;;;;;;31.80;31.23;101194.78;5072124;28;20029;-74
2023/06/20 03:28:18;;;;;;;1999.90;999.90;;;;;;;31.19;31.93;101194.13;5054832;28;20028;-76
2023/06/20 03:30:44;;;;;;;1999.90;999.90;;;;;;;32.01;30.73;101194.56;5055758;28;20060;-75
2023/06/20 03:33:09;;;;;;;1999.90;999.90;;;;;;;31.10;32.29;101181.47;5060637;28;20028;-75
2023/06/20 03:35:35;;;;;;;1999.90;999.90;;;;;;;31.43;31.34;101171.22;5071837;28;20039;-76
2023/06/20 03:38:00;;;;;;;1999.90;999.90;;;;;;;31.01;32.02;101182.25;5055079;28;20423;-75
2023/06/20 03:40:26;;;;;;;1999.90;999.90;;;;;;;31.30;32.10;101177.75;5064875;28;20532;-75
2023/06/20 03:42:51;;;;;;;1999.90;999.90;;;;;;;31.43;31.67;101182.03;5057524;28;20032;-75
2023/06/20 03:45:17;;;;;;;1999.90;999.90;;;;;;;31.53;31.67;101176.59;5054053;28;20429;-75
2023/06/20 03:47:42;;;;;;;1999.90;999.90;;;;;;;31.06;32.21;101185.44;5055459;28;20024;-75
2023/06/20 03:50:08;;;;;;;1999.90;999.90;;;;;;;30.92;32.35;101192.91;5061258;28;20380;-76
2023/06/20 03:52:33;;;;;;;1999.90;999.90;;;;;;;31.41;32.35;101194.81;5075162;28;20085;-75
2023/06/20 03:54:58;;;;;;;1999.90;999.90;;;;;;;31.57;31.56;101184.28;5071811;28;20108;-74
2023/06/20 03:57:24;;;;;;;1999.90;999.90;;;;;;;31.70;31.62;101185.88;5072155;28;20598;-76
2023/06/20 03:59:49;;;;;;;1999.90;999.90;;;;;;;31.96;31.34;101195.03;5075760;28;20085;-75
2023/06/20 04:02:14;;;;;;;1999.90;999.90;;;;;;;31.94;31.63;101191.63;5078172;28;20036;-75
2023/06/20 04:04:40;;;;;;;1999.90;999.90;;;;;;;32.13;31.13;101195.25;5053223;28;20028;-75
2023/06/20 04:07:08;;;;;;;1999.90;999.90;;;;;;;32.20;31.32;101185.56;5054672;28;20032;-75
2023/06/20 04:09:33;;;;;;;1999.90;999.90;;;;;;;32.34;30.79;101183.38;5054948;28;20070;-74
2023/06/20 04:11:59;;;;;;;1999.90;999.90;;;;;;;31.84;31.59;101190.78;5071885;28;20028;-75
2023/06/20 04:14:24;;;;;;;1999.90;999.90;;;;;;;32.21;31.64;101181.88;5056943;28;20454;-75
2023/06/20 04:16:50;;;;;;;1999.90;999.90;;;;;;;32.21;30.91;101186.44;5061914;28;20043;-75
2023/06/20 04:19:16;;;;;;;1999.90;999.90;;;;;;;32.17;31.19;101191.28;5070559;28;20052;-76
2023/06/20 04:21:42;;;;;;;1999.90;999.90;;;;;;;32.10;30.83;101185.59;5053545;28;20024;-76
2023/06/20 04:24:07;;;;;;;1999.90;999.90;;;;;;;32.13;31.19;101184.44;5072876;28;20103;-75
2023/06/20 04:26:32;;;;;;;1999.90;999.90;;;;;;;32.64;30.63;101188.50;5077065;28;20028;-75
2023/06/20 04:28:58;;;;;;;1999.90;999.90;;;;;;;32.39;30.77;101189.22;5065052;28;20028;-75
2023/06/20 04:31:24;;;;;;;1999.90;999.90;;;;;;;32.23;30.95;101187.13;5071228;28;20028;-76
2023/06/20 04:33:50;;;;;;;1999.90;999.90;;;;;;;32.22;31.01;101189.00;5060019;28;20032;-76
2023/06/20 04:36:15;;;;;;;1999.90;999.90;;;;;;;32.03;31.51;101183.63;5084641;28;20028;-76
2023/06/20 04:38:41;;;;;;;1999.90;999.90;;;;;;;31.82;31.63;101182.00;5062158;28;20123;-76
2023/06/20 04:41:07;;;;;;;1999.90;999.90;;;;;;;31.73;31.71;101180.16;5064458;28;20044;-76
2023/06/20 04:43:32;;;;;;;1999.90;999.90;;;;;;;31.37;32.14;101166.41;5054425;28;20063;-76
2023/06/20 04:45:58;;;;;;;1999.90;999.90;;;;;;;31.77;31.68;101162.66;5052925;28;20040;-76
2023/06/20 04:48:33;;;;;;;1999.90;999.90;;;;;;;32.05;31.09;101168.13;5053644;28;20114;-75
2023/06/20 04:50:58;;;;;;;1999.90;999.90;;;;;;;32.38;31.01;101172.09;5053204;28;20021;-75
2023/06/20 04:53:25;;;;;;;1999.90;999.90;;;;;;;32.54;30.90;101166.06;5052713;28;20051;-76
2023/06/20 04:55:52;;;;;;;1999.90;999.90;;;;;;;32.57;30.54;101157.63;5070314;28;20076;-74
2023/06/20 04:58:17;;;;;;;1999.90;999.90;;;;;;;32.86;30.40;101164.72;5053096;28;20045;-76
2023/06/20 05:00:42;;;;;;;1999.90;999.90;;;;;;;32.94;30.44;101172.94;5081829;28;20035;-76
2023/06/20 05:03:08;;;;;;;1999.90;999.90;;;;;;;32.32;31.32;101171.88;5076508;28;20020;-76
2023/06/20 05:05:33;;;;;;;1999.90;999.90;;;;;;;32.71;30.94;101163.56;5051270;28;20503;-75
2023/06/20 05:07:59;;;;;;;1999.90;999.90;;;;;;;32.70;30.64;101169.97;5054461;28;20024;-76
2023/06/20 05:10:25;;;;;;;1999.90;999.90;;;;;;;32.80;30.53;101160.78;5053553;28;20067;-75
2023/06/20 05:12:51;;;;;;;1999.90;999.90;;;;;;;32.29;30.97;101157.66;5059336;28;20016;-75
2023/06/20 05:15:23;;;;;;;1999.90;999.90;;;;;;;32.64;31.02;101156.03;5068566;28;20538;-74
2023/06/20 05:17:48;;;;;;;1999.90;999.90;;;;;;;32.30;31.42;101159.34;5060572;28;20024;-75
2023/06/20 05:20:14;;;;;;;1999.90;999.90;;;;;;;32.46;31.17;101168.66;5052615;28;20535;-74
2023/06/20 05:22:39;;;;;;;1999.90;999.90;;;;;;;32.75;31.27;101167.66;5056386;28;20123;-75
2023/06/20 05:25:05;;;;;;;1999.90;999.90;;;;;;;33.22;30.34;101170.16;5061511;28;20066;-75
2023/06/20 05:27:30;;;;;;;1999.90;999.90;;;;;;;33.55;29.94;101162.31;5063449;28;20438;-75
2023/06/20 05:29:56;;;;;;;1999.90;999.90;;;;;;;33.13;30.56;101169.22;5068499;28;20464;-75
2023/06/20 05:32:21;;;;;;;1999.90;999.90;;;;;;;33.18;30.56;101167.91;5069529;28;20028;-75
2023/06/20 05:34:46;;;;;;;1999.90;999.90;;;;;;;33.31;30.43;101168.41;5069338;28;20021;-75
2023/06/20 05:37:12;;;;;;;1999.90;999.90;;;;;;;33.58;30.28;101159.28;5070963;28;20055;-75
2023/06/20 05:39:37;;;;;;;1999.90;999.90;;;;;;;33.65;30.13;101146.78;5052675;28;20023;-75
2023/06/20 05:42:03;;;;;;;1999.90;999.90;;;;;;;33.64;30.18;101142.38;5051157;28;20384;-75
2023/06/20 05:44:28;;;;;;;1999.90;999.90;;;;;;;33.83;29.53;101140.50;5070752;28;20121;-75
2023/06/20 05:46:54;;;;;;;1999.90;999.90;;;;;;;33.87;29.44;101131.03;5052562;28;20178;-75
2023/06/20 05:49:21;;;;;;;1999.90;999.90;;;;;;;33.69;30.08;101143.75;5052792;28;20032;-75
2023/06/20 05:51:47;;;;;;;1999.90;999.90;;;;;;;33.78;29.99;101138.25;5052911;28;20020;-75
2023/06/20 05:54:13;;;;;;;1999.90;999.90;;;;;;;33.52;30.42;101149.06;5052974;28;20020;-76
2023/06/20 05:56:39;;;;;;;1999.90;999.90;;;;;;;34.03;29.92;101141.09;5069910;28;20129;-75
2023/06/20 05:59:04;;;;;;;1999.90;999.90;;;;;;;34.07;29.88;101147.06;5053077;28;20036;-76
2023/06/20 06:01:29;;;;;;;1999.90;999.90;;;;;;;33.50;30.29;101145.69;5053332;28;20021;-75
2023/06/20 06:03:55;;;;;;;1999.90;999.90;;;;;;;33.68;30.31;101148.34;5069593;28;20033;-75
2023/06/20 06:06:21;;;;;;;1999.90;999.90;;;;;;;34.32;29.77;101157.03;5070443;28;20139;-75
2023/06/20 06:08:46;;;;;;;1999.90;999.90;;;;;;;34.86;28.97;101164.00;5052301;28;20024;-75
2023/06/20 06:11:12;;;;;;;1999.90;999.90;;;;;;;35.49;28.51;101169.81;5052313;28;20030;-75
2023/06/20 06:13:39;;;;;;;1907.50;999.90;;;;;;;35.46;28.04;101171.00;5052203;28;20475;-76
2023/06/20 06:16:05;;;;;;;1794.35;999.90;;;;;;;35.60;28.01;101172.16;5052675;28;20025;-75
2023/06/20 06:18:30;;;;;;;1740.25;999.90;;;;;;;36.60;26.63;101162.69;5070206;28;20024;-74
2023/06/20 06:20:56;;;;;;;1720.68;999.90;;;;;;;36.71;26.73;101168.72;5070252;28;20565;-74
2023/06/20 06:23:21;;;;;;;1704.32;999.90;;;;;;;37.09;26.40;101164.22;5051946;28;20034;-74
2023/06/20 06:25:46;;;;;;;1688.70;999.90;;;;;;;37.05;26.60;101167.50;5052076;28;20024;-75
2023/06/20 06:28:12;;;;;;;1553.55;999.90;;;;;;;36.32;26.75;101154.97;5052760;28;20115;-74
2023/06/20 06:30:38;;;;;;;1597.13;999.90;;;;;;;36.50;26.62;101153.88;5051660;28;20366;-74
2023/06/20 06:33:07;;;;;;;1598.60;999.90;;;;;;;36.37;26.84;101150.88;5052606;28;20435;-75
2023/06/20 06:35:33;;;;;;;1610.18;999.90;;;;;;;36.46;26.62;101150.66;5052197;28;20563;-74
2023/06/20 06:37:59;;;;;;;1647.85;999.90;;;;;;;36.15;27.05;101147.91;5051911;28;20016;-75
2023/06/20 06:40:25;;;;;;;1646.85;999.90;;;;;;;35.39;28.06;101152.81;5053111;28;20059;-76
2023/06/20 06:42:51;;;;;;;1662.10;999.90;;;;;;;36.15;27.28;101142.47;5052799;28;20020;-76
2023/06/20 06:45:16;;;;;;;1666.30;999.90;;;;;;;36.68;26.79;101138.13;5055676;28;20025;-76
2023/06/20 06:47:42;;;;;;;1652.32;999.90;;;;;;;36.40;26.98;101136.94;5055901;28;20438;-76
2023/06/20 06:50:07;;;;;;;1679.68;999.90;;;;;;;37.00;26.40;101130.78;5055935;28;20029;-76
2023/06/20 06:52:34;;;;;;;1628.75;999.90;;;;;;;37.24;26.11;101134.31;5055555;28;20020;-76
2023/06/20 06:55:00;;;;;;;1633.32;999.90;;;;;;;37.72;25.66;101122.28;5054899;28;20039;-76
2023/06/20 06:57:26;;;;;;;1596.00;999.90;;;;;;;38.23;25.31;101125.09;5055821;28;20052;-76
2023/06/20 06:59:51;;;;;;;1535.53;999.90;;;;;;;37.67;25.56;101126.41;5054955;28;20059;-75
2023/06/20 07:02:16;;;;;;;1530.40;999.90;;;;;;;36.20;26.84;101123.72;5055875;28;20085;-76
2023/06/20 07:04:44;;;;;;;1530.30;999.90;;;;;;;36.25;26.90;101113.16;5055833;28;20052;-75
2023/06/20 07:07:09;;;;;;;1568.38;999.90;;;;;;;36.06;27.22;101111.72;5055235;28;20032;-76
2023/06/20 07:09:36;;;;;;;1586.20;999.90;;;;;;;35.39;28.08;101103.91;5055708;28;20047;-76
2023/06/20 07:12:03;;;;;;;1611.18;999.90;;;;;;;35.77;27.90;101096.00;5073364;28;20025;-76
2023/06/20 07:14:28;;;;;;;1641.75;999.90;;;;;;;37.77;25.87;101098.03;5072841;28;20535;-75
2023/06/20 07:16:54;;;;;;;1592.15;999.90;;;;;;;39.69;23.51;101094.72;5055258;28;20441;-76
2023/06/20 07:19:19;;;;;;;1512.82;999.90;;;;;;;40.09;23.04;101091.34;5073280;28;20480;-75
2023/06/20 07:21:44;;;;;;;1380.70;999.90;;;;;;;40.82;22.02;101095.31;5054924;28;20123;-75
2023/06/20 07:24:10;;;;;;;1355.60;999.90;;;;;;;41.22;21.97;101109.03;5055365;28;20074;-75
2023/06/20 07:26:38;;;;;;;1165.00;999.90;;;;;;;42.66;19.98;101110.88;5054054;28;20029;-74
2023/06/20 07:29:03;;;;;;;1102.00;989.25;;;;;;;43.44;19.56;101106.81;5073240;28;20020;-77
2023/06/20 07:31:29;;;;;;;1063.15;958.85;;;;;;;44.73;18.91;101102.25;5072976;28;20099;-75
2023/06/20 07:33:54;;;;;;;981.50;891.88;;;;;;;44.59;17.81;101112.59;5054352;28;20036;-76
2023/06/20 07:36:19;;;;;;;957.45;871.63;;;;;;;44.51;17.83;101110.19;5055599;28;20028;-76
2023/06/20 07:38:45;;;;;;;944.00;860.53;;;;;;;43.04;19.20;101119.00;5054685;28;20032;-75
2023/06/20 07:41:10;;;;;;;964.22;877.85;;;;;;;43.53;19.09;101118.41;5054413;28;20484;-75
2023/06/20 07:43:35;;;;;;;959.35;872.65;;;;;;;45.50;17.51;101122.56;5054280;28;20068;-75
2023/06/20 07:46:01;;;;;;;940.92;858.72;;;;;;;45.04;17.56;101123.13;5054817;28;20070;-75
2023/06/20 07:48:29;;;;;;;1030.05;931.03;;;;;;;46.12;17.16;101126.63;5071858;28;20032;-75
2023/06/20 07:50:55;;;;;;;1000.90;907.78;;;;;;;46.73;16.34;101124.16;5054173;28;20043;-76
2023/06/20 07:53:21;;;;;;;1000.88;907.92;;;;;;;46.53;17.18;101125.47;5072112;28;20039;-75
2023/06/20 07:55:46;;;;;;;988.67;898.55;;;;;;;46.45;16.50;101130.59;5070231;28;20123;-76
2023/06/20 07:58:12;;;;;;;983.78;894.38;;;;;;;45.09;17.79;101136.22;5072280;28;20542;-75
2023/06/20 08:00:38;;;;;;;827.08;761.70;;;;;;;45.72;17.10;101129.09;5071416;28;20028;-74
2023/06/20 08:03:03;;;;;;;785.50;726.13;;;;;;;45.87;17.76;101127.78;5053349;28;20111;-74
2023/06/20 08:05:28;;;;;;;893.30;819.78;;;;;;;44.87;18.06;101125.72;5054552;28;20046;-74
2023/06/20 08:07:54;;;;;;;857.47;789.38;;;;;;;46.19;17.61;101121.78;5071894;28;20225;-74
2023/06/20 08:10:19;;;;;;;837.42;772.25;;;;;;;46.71;17.05;101116.13;5053399;28;20029;-74
2023/06/20 08:12:45;;;;;;;806.85;745.03;;;;;;;47.82;15.91;101124.72;5053806;28;20036;-75
2023/06/20 08:15:11;;;;;;;807.50;745.60;;;;;;;48.62;15.66;101115.88;5054003;28;20020;-75
2023/06/20 08:17:36;;;;;;;787.38;728.47;;;;;;;49.27;14.44;101121.38;5070642;28;20035;-74
2023/06/20 08:20:06;;;;;;;770.67;714.00;;;;;;;46.45;17.03;101116.78;5071894;28;20028;-75
2023/06/20 08:22:33;;;;;;;754.25;698.75;;;;;;;46.62;17.14;101128.69;5071491;28;20108;-75
2023/06/20 08:24:58;;;;;;;760.15;704.17;;;;;;;47.21;16.59;101119.13;5052909;28;20021;-75
2023/06/20 08:27:23;;;;;;;781.70;723.35;;;;;;;48.66;15.59;101122.56;5053926;28;20070;-75
2023/06/20 08:29:49;;;;;;;728.58;675.63;;;;;;;47.90;16.28;101131.75;5070039;28;20024;-75
2023/06/20 08:32:14;;;;;;;738.78;685.00;;;;;;;48.50;15.15;101124.38;5071403;28;20044;-76
2023/06/20 08:34:39;;;;;;;736.38;683.25;;;;;;;46.62;17.07;101117.63;5070647;28;20024;-75
2023/06/20 08:37:06;;;;;;;750.65;695.72;;;;;;;47.57;16.69;101114.97;5070245;28;20377;-75
2023/06/20 08:39:31;;;;;;;716.55;665.38;;;;;;;47.97;16.00;101115.75;5052936;28;20040;-75
2023/06/20 08:41:56;;;;;;;738.05;684.55;;;;;;;49.36;15.09;101100.34;5052501;28;20063;-75
2023/06/20 08:44:22;;;;;;;708.38;657.70;;;;;;;48.73;15.09;101095.44;5052042;28;20037;-75
2023/06/20 08:46:57;;;;;;;739.90;686.22;;;;;;;48.68;15.65;101103.75;5070373;28;20028;-75
2023/06/20 08:49:24;;;;;;;757.42;701.85;;;;;;;48.45;16.60;101093.81;5052804;28;20082;-76
2023/06/20 08:51:52;;;;;;;781.67;723.17;;;;;;;47.85;16.34;101095.69;5052192;28;20085;-75
2023/06/20 08:54:20;;;;;;;791.75;731.92;;;;;;;47.33;16.86;101091.38;5070868;28;20021;-74
2023/06/20 08:56:47;;;;;;;811.67;749.60;;;;;;;45.46;17.88;101091.81;5052411;28;20132;-75
2023/06/20 08:59:13;;;;;;;808.85;747.05;;;;;;;47.56;16.54;101095.88;5051639;28;20408;-75
2023/06/20 09:01:38;;;;;;;837.90;773.58;;;;;;;48.54;15.32;101094.19;5070433;28;20017;-76
2023/06/20 09:04:05;;;;;;;825.08;761.33;;;;;;;48.95;15.80;101097.31;5052647;28;20039;-74
2023/06/20 09:06:37;;;;;;;791.85;732.38;;;;;;;48.07;15.77;101093.69;5069561;28;20381;-75
2023/06/20 09:09:06;;;;;;;787.42;728.78;;;;;;;46.02;16.88;101085.84;5052505;28;20081;-75
2023/06/20 09:11:38;;;;;;;807.65;745.65;;;;;;;46.40;17.75;101082.44;5070360;28;20476;-75
2023/06/20 09:14:03;;;;;;;805.25;743.83;;;;;;;45.42;17.97;101078.78;5051946;28;20025;-76
2023/06/20 09:16:29;;;;;;;841.15;775.25;;;;;;;46.44;17.41;101081.94;5053033;28;20127;-75
2023/06/20 09:18:59;;;;;;;836.97;771.20;;;;;;;47.11;17.15;101085.81;5069858;28;20509;-76
2023/06/20 09:21:24;;;;;;;823.05;759.08;;;;;;;48.08;16.27;101081.53;5070548;28;20024;-75
2023/06/20 09:24:01;;;;;;;809.97;747.70;;;;;;;48.89;15.88;101081.75;5051914;28;20020;-75
2023/06/20 09:26:26;;;;;;;773.65;716.08;;;;;;;47.18;16.91;101086.47;5069382;28;20414;-75
2023/06/20 09:29:05;;;;;;;758.70;702.55;;;;;;;46.81;16.46;101092.53;5052169;28;20469;-75
2023/06/20 09:31:40;;;;;;;791.40;731.42;;;;;;;48.39;16.31;101079.09;5052555;28;20050;-75
2023/06/20 09:34:05;;;;;;;805.10;744.17;;;;;;;48.69;15.59;101088.78;5052134;28;20416;-76
2023/06/20 09:36:30;;;;;;;776.42;718.50;;;;;;;49.18;15.34;101089.69;5052242;28;20020;-76
2023/06/20 09:38:56;;;;;;;737.70;684.00;;;;;;;47.87;15.69;101099.00;5051660;28;20042;-76
2023/06/20 09:41:22;;;;;;;773.63;716.60;;;;;;;48.16;16.00;101096.03;5069781;28;20048;-76
2023/06/20 09:43:47;;;;;;;759.47;703.88;;;;;;;48.66;15.40;101094.03;5069760;28;20102;-75
2023/06/20 09:46:13;;;;;;;757.00;702.05;;;;;;;49.50;14.57;101085.97;5070284;28;20025;-76
2023/06/20 09:48:39;;;;;;;770.30;714.35;;;;;;;48.65;15.40;101090.41;5068472;28;20019;-76
2023/06/20 09:51:08;;;;;;;759.60;704.70;;;;;;;47.54;16.25;101089.72;5051876;28;20558;-76
2023/06/20 09:54:03;;;;;;;713.30;662.83;;;;;;;47.08;16.30;101081.63;5070057;28;20024;-75
2023/06/20 09:56:29;;;;;;;735.83;683.05;;;;;;;47.60;15.96;101085.94;5042613;28;20044;-75
2023/06/20 09:58:59;;;;;;;731.45;678.70;;;;;;;48.23;15.81;101085.59;5051701;28;20289;-75
2023/06/20 10:01:27;;;;;;;733.63;680.88;;;;;;;48.07;15.77;101093.69;5051347;28;20391;-75
2023/06/20 10:03:55;;;;;;;739.72;686.38;;;;;;;47.18;16.21;101086.47;5069294;28;20052;-75
2023/06/20 10:06:21;;;;;;;753.17;698.08;;;;;;;48.15;15.89;101069.44;5051803;28;20030;-75
2023/06/20 10:08:49;;;;;;;738.08;684.75;;;;;;;47.43;15.98;101077.69;5069045;28;20150;-75
2023/06/20 10:11:14;;;;;;;716.47;664.80;;;;;;;44.88;18.66;101076.97;5052034;28;20025;-73
2023/06/20 10:13:41;;;;;;;791.50;731.45;;;;;;;47.70;17.06;101077.75;5051772;28;20025;-74
2023/06/20 10:16:07;;;;;;;787.83;727.88;;;;;;;48.23;16.46;101069.81;5069338;28;20029;-74
2023/06/20 10:18:32;;;;;;;752.33;696.78;;;;;;;46.88;17.05;101073.81;5071711;28;20032;-74
2023/06/20 10:21:01;;;;;;;753.67;698.33;;;;;;;48.60;15.95;101062.66;5073466;28;20031;-75
2023/06/20 10:23:36;;;;;;;745.47;691.25;;;;;;;47.95;16.33;101057.00;5072786;28;20078;-75
2023/06/20 10:26:03;;;;;;;704.88;654.80;;;;;;;49.54;15.02;101049.06;5055664;28;20186;-74
2023/06/20 10:28:29;;;;;;;711.88;661.17;;;;;;;49.10;15.80;101054.13;5055172;28;20028;-75
2023/06/20 10:30:57;;;;;;;722.22;671.47;;;;;;;49.24;15.26;101052.56;5072675;28;20578;-75
2023/06/20 10:33:36;;;;;;;736.15;683.92;;;;;;;49.18;16.15;101045.31;5073586;28;20487;-75
2023/06/20 10:36:12;;;;;;;734.30;682.85;;;;;;;48.78;15.75;101047.53;5055265;28;20384;-75
2023/06/20 10:38:38;;;;;;;682.70;635.85;;;;;;;46.87;16.94;101048.13;5071946;28;20028;-75
2023/06/20 10:41:07;;;;;;;758.75;705.17;;;;;;;48.33;16.61;101044.13;5073086;28;20025;-74
2023/06/20 10:43:58;;;;;;;751.13;697.83;;;;;;;48.45;15.90;101032.00;5054424;28;20031;-74
2023/06/20 10:46:29;;;;;;;738.97;686.90;;;;;;;48.88;15.76;101035.72;5073130;28;20056;-74
2023/06/20 10:48:55;;;;;;;757.95;704.05;;;;;;;46.82;16.77;101033.38;5054631;28;20411;-76
2023/06/20 10:51:20;;;;;;;779.63;723.35;;;;;;;46.49;17.37;101029.53;5054232;28;20071;-74